KHRO

Boone County Airport

Airport
ICAO code
KHRO
Summary
ICAO Region
NAM
ICAO Territory
Location

Harrison, Arkansas,

Elevation
1365 ft
Coordinates
36° 15' 41" N , 93° 9' 17" W
KCC
Metar
Observation
KHRO 070653Z AUTO 26004KT 10SM CLR 14/09 A3021 RMK AO2 SLP221 T01390089
Station
Harrison, Boone County Airport
Date/Time
2022-10-07 06:53:00
Wind direction
260°
Wind speed
04 kts
Lowest cloud amount
n/a
Temperature
13.9°C
Dew point
8.9°C
Humidity
71%
Weather condition
n/a

Description

Regional airport serving Harrison, Arkansas and the surrounding Boone county. It is located 3 nm northwest of the city's business district.

Climatology

Humid “subtropical” climate (Köppen climate classification Cfa) - characterized by hot, humid summers and cool winters. Significant amounts of precipitation occur in all seasons in most areas. Winter rainfall (and sometimes snowfall) is associated with large storms that the westerlies steer from west to east. Most summer rainfall occurs during thunderstorms and occasional tropical storms (hurricanes).

Airport map

Aerial View

SKYbrary Partners:

Safety knowledge contributed by: